Terminal Aerodrome Forecast
Issued by NWS

Home | Current Version | Previous Version | Text Only | Print | Product List | Glossary On
Versions: 1 2 3 4 5 6 7 8 9 10 11 12 13 14 15 16 17 18 19 20 21 22 23 24 25 26 27 28 29 30 31 32
000
FTUS45 KGJT 290536
TAFEGE
TAF
KEGE 290536Z 2906/3006 VRB02KT 3SM -SN BR SCT015 OVC030
      TEMPO 2906/2909 1 1/2SM -SN BKN015
     FM291800 VRB03KT P6SM VCSH SCT025 BKN040
      TEMPO 2920/2924 4SM -SN OVC025
      AMD LTD TO CLD VIS AND WIND TIL 291400=

USA.gov is the U.S. government's official web portal to all federal, state and local government web resources and services.